Terminal Aerodrome Forecast
Issued by NWS Los Angeles, CA

Home | Current Version | Previous Version | Text Only | Print | Product List | Glossary On
Versions: 1 2 3 4 5 6 7 8 9 10 11 12 13 14 15 16 17 18 19 20 21 22 23 24 25 26 27 28 29 30 31 32 33 34 35 36 37 38 39
318
FTUS46 KLOX 271720
TAFSMX
TAF
KSMX 271720Z 2718/2818 00000KT P6SM SKC
     FM272000 32008KT P6SM SKC
     FM280300 VRB03KT P6SM SKC
     FM280600 VRB03KT 2SM BR OVC004
     FM280900 VRB03KT 1/2SM FG VV001
     FM281400 VRB03KT 5SM BR FEW002
     FM281600 26006KT P6SM SKC=

USA.gov is the U.S. government's official web portal to all federal, state and local government web resources and services.